Time;durP1;ratioP1;P1;durP2;ratioP2;P2;SDS_P1;SDS_P2;PMS_P1;PMS_P2;Temp;Humidity;BMP_temperature;BMP_pressure;BME280_temperature;BME280_humidity;BME280_pressure;Samples;Min_cycle;Max_cycle;Signal;HPM_P1;HPM_P2
2022/07/22 00:01:55;;;;;;;7.93;5.27;;;17.80;99.90;;;;;;4985174;28;20476;-85
2022/07/22 00:04:24;;;;;;;6.37;5.43;;;17.80;99.90;;;;;;4981308;28;20449;-83
2022/07/22 00:06:52;;;;;;;6.17;5.63;;;17.80;99.90;;;;;;4979726;28;20946;-83
2022/07/22 00:09:24;;;;;;;7.57;6.60;;;17.70;99.90;;;;;;4997840;28;20449;-83
2022/07/22 00:11:55;;;;;;;7.67;6.87;;;17.70;99.90;;;;;;4979870;28;20492;-83
2022/07/22 00:14:23;;;;;;;6.80;6.20;;;17.70;99.90;;;;;;4980568;28;20481;-83
2022/07/22 00:16:51;;;;;;;7.97;6.50;;;17.70;99.90;;;;;;4979773;28;21092;-83
2022/07/22 00:19:20;;;;;;;7.27;6.57;;;17.70;99.90;;;;;;4997301;28;20459;-83
2022/07/22 00:21:48;;;;;;;7.50;6.90;;;17.70;99.90;;;;;;4995794;28;20469;-83
2022/07/22 00:24:17;;;;;;;7.33;6.70;;;17.70;99.90;;;;;;4979670;28;20452;-83
2022/07/22 00:26:45;;;;;;;7.60;6.90;;;17.70;99.90;;;;;;4979454;28;20452;-83
2022/07/22 00:29:15;;;;;;;9.07;7.53;;;17.60;99.90;;;;;;4997287;28;20438;-83
2022/07/22 00:31:43;;;;;;;7.77;6.50;;;17.60;99.90;;;;;;4996273;28;20469;-83
2022/07/22 00:34:11;;;;;;;8.40;7.30;;;17.60;99.90;;;;;;4981341;28;20503;-83
2022/07/22 00:36:40;;;;;;;7.73;6.90;;;17.60;99.90;;;;;;4980642;28;20469;-83
2022/07/22 00:39:08;;;;;;;7.80;7.00;;;17.60;99.90;;;;;;4980451;28;20476;-83
2022/07/22 00:41:36;;;;;;;7.13;6.47;;;17.50;99.90;;;;;;4981184;28;20503;-83
2022/07/22 00:44:07;;;;;;;7.30;6.60;;;17.50;99.90;;;;;;4942263;28;1144000;-84
2022/07/22 00:46:38;;;;;;;7.77;5.57;;;17.50;99.90;;;;;;4981675;28;20448;-83
2022/07/22 00:49:08;;;;;;;9.80;6.20;;;17.50;99.90;;;;;;4983764;28;20962;-83
2022/07/22 00:51:39;;;;;;;6.93;5.57;;;17.40;99.90;;;;;;4984121;28;20867;-83
2022/07/22 00:54:07;;;;;;;6.10;5.50;;;17.50;99.90;;;;;;4982743;28;20498;-83
2022/07/22 00:56:37;;;;;;;6.23;5.30;;;17.40;99.90;;;;;;4982153;28;20990;-83
2022/07/22 00:59:09;;;;;;;5.20;4.53;;;17.40;99.90;;;;;;4980926;28;20496;-83
2022/07/22 01:01:39;;;;;;;7.80;5.30;;;17.30;99.90;;;;;;4981585;28;20464;-83
2022/07/22 01:04:08;;;;;;;9.80;5.20;;;17.30;99.90;;;;;;4981175;28;20451;-83
2022/07/22 01:06:36;;;;;;;4.63;4.23;;;17.30;99.90;;;;;;4981712;28;20457;-83
2022/07/22 01:09:05;;;;;;;4.97;4.47;;;17.30;99.90;;;;;;4981113;28;20823;-83
2022/07/22 01:11:33;;;;;;;6.53;4.70;;;17.30;99.90;;;;;;4981501;28;21040;-83
2022/07/22 01:14:01;;;;;;;6.20;4.57;;;17.30;99.90;;;;;;4980858;28;20448;-83
2022/07/22 01:16:31;;;;;;;8.90;4.57;;;17.30;99.90;;;;;;4980480;28;20495;-83
2022/07/22 01:19:00;;;;;;;7.67;4.93;;;17.30;99.90;;;;;;4979718;28;20445;-83
2022/07/22 01:21:30;;;;;;;6.40;4.07;;;17.30;99.90;;;;;;4978869;28;20562;-83
2022/07/22 01:23:59;;;;;;;6.80;4.37;;;17.20;99.90;;;;;;4979149;28;20449;-83
2022/07/22 01:26:28;;;;;;;5.90;3.80;;;17.20;99.90;;;;;;4979256;28;20449;-83
2022/07/22 01:28:56;;;;;;;5.50;3.70;;;17.20;99.90;;;;;;4980019;28;20468;-84
2022/07/22 01:31:25;;;;;;;4.60;3.63;;;17.20;99.90;;;;;;4984528;28;20528;-85
2022/07/22 01:33:55;;;;;;;8.37;3.77;;;17.10;99.90;;;;;;4982981;28;20445;-85
2022/07/22 01:36:23;;;;;;;5.03;3.07;;;17.10;99.90;;;;;;4982011;28;20496;-85
2022/07/22 01:38:53;;;;;;;4.53;2.70;;;17.10;99.90;;;;;;4982852;28;20464;-86
2022/07/22 01:41:22;;;;;;;4.40;3.60;;;17.10;99.90;;;;;;4984238;28;20479;-85
2022/07/22 01:43:50;;;;;;;4.73;3.30;;;17.10;99.90;;;;;;4983284;28;20448;-85
2022/07/22 01:46:19;;;;;;;6.37;3.00;;;17.00;99.90;;;;;;4984071;28;20792;-85
2022/07/22 01:48:48;;;;;;;5.93;2.57;;;17.00;99.90;;;;;;4983960;28;20515;-85
2022/07/22 01:51:16;;;;;;;3.23;2.80;;;17.00;99.90;;;;;;4985643;28;20964;-85
2022/07/22 01:53:44;;;;;;;4.53;2.70;;;16.90;99.90;;;;;;4987611;28;20449;-84
2022/07/22 01:56:14;;;;;;;4.90;3.20;;;16.90;99.90;;;;;;4990750;28;20469;-84
2022/07/22 01:58:49;;;;;;;3.93;2.67;;;16.90;99.90;;;;;;4996654;28;20551;-85
2022/07/22 02:01:24;;;;;;;2.60;2.40;;;16.90;99.90;;;;;;4997514;28;20456;-85
2022/07/22 02:03:53;;;;;;;2.93;2.30;;;16.80;99.90;;;;;;4996934;28;20938;-85
2022/07/22 02:06:22;;;;;;;4.40;2.63;;;16.90;99.90;;;;;;4995853;28;20448;-84
2022/07/22 02:08:52;;;;;;;2.80;2.10;;;16.80;99.90;;;;;;4997451;28;20440;-81
2022/07/22 02:11:37;;;;;;;2.90;2.47;;;16.80;99.90;;;;;;5012300;28;20499;-82
2022/07/22 02:14:06;;;;;;;6.57;2.83;;;16.80;99.90;;;;;;4994743;28;20500;-82
2022/07/22 02:16:35;;;;;;;4.33;2.43;;;16.80;99.90;;;;;;4994133;28;20468;-81
2022/07/22 02:19:06;;;;;;;5.83;2.70;;;16.80;99.90;;;;;;4993746;28;20445;-82
2022/07/22 02:21:35;;;;;;;4.10;2.50;;;16.80;99.90;;;;;;4995358;28;20465;-81
2022/07/22 02:24:03;;;;;;;4.57;2.20;;;16.80;99.90;;;;;;4995168;28;20453;-81
2022/07/22 02:26:32;;;;;;;5.33;2.50;;;16.80;99.90;;;;;;4995001;28;20536;-82
2022/07/22 02:29:02;;;;;;;5.30;2.50;;;16.80;99.90;;;;;;4993762;28;20449;-84
2022/07/22 02:31:31;;;;;;;4.73;2.77;;;16.80;99.90;;;;;;4993433;28;20460;-84
2022/07/22 02:33:59;;;;;;;5.30;2.77;;;16.80;99.90;;;;;;4993891;28;20451;-84
2022/07/22 02:36:29;;;;;;;5.07;3.43;;;16.80;99.90;;;;;;4993560;28;20460;-84
2022/07/22 02:38:58;;;;;;;4.43;2.63;;;16.80;99.90;;;;;;4991927;28;20840;-84
2022/07/22 02:41:29;;;;;;;3.67;2.70;;;16.80;99.90;;;;;;4992348;28;20444;-84
2022/07/22 02:43:59;;;;;;;4.83;2.90;;;16.80;99.90;;;;;;4992277;28;20484;-84
2022/07/22 02:46:29;;;;;;;4.70;3.10;;;16.70;99.90;;;;;;4992555;28;20448;-81
2022/07/22 02:49:05;;;;;;;4.63;3.10;;;16.70;99.90;;;;;;4992796;28;20437;-82
2022/07/22 02:51:33;;;;;;;4.80;3.30;;;16.70;99.90;;;;;;4991964;28;20455;-82
2022/07/22 02:54:01;;;;;;;3.50;3.20;;;16.70;99.90;;;;;;4992442;28;20484;-81
2022/07/22 02:56:30;;;;;;;4.63;2.93;;;16.70;99.90;;;;;;4991610;28;20458;-82
2022/07/22 02:58:58;;;;;;;5.50;2.93;;;16.70;99.90;;;;;;4992268;28;20465;-82
2022/07/22 03:01:28;;;;;;;6.00;3.07;;;16.70;99.90;;;;;;4990800;28;20480;-82
2022/07/22 03:04:00;;;;;;;6.00;3.27;;;16.70;99.90;;;;;;4991688;28;20415;-82
2022/07/22 03:06:31;;;;;;;5.47;3.23;;;16.70;99.90;;;;;;4991989;28;20429;-82
2022/07/22 03:09:04;;;;;;;7.47;3.40;;;16.70;99.90;;;;;;4990446;28;20524;-82
2022/07/22 03:11:35;;;;;;;5.10;3.03;;;16.70;99.90;;;;;;4991468;28;20860;-82
2022/07/22 03:14:05;;;;;;;6.30;3.20;;;16.70;99.90;;;;;;4990468;28;20524;-82
2022/07/22 03:16:34;;;;;;;5.37;2.63;;;16.70;99.90;;;;;;4991017;28;20451;-81
2022/07/22 03:19:03;;;;;;;5.83;2.90;;;16.60;99.90;;;;;;4990799;28;20419;-82
2022/07/22 03:21:32;;;;;;;8.13;3.30;;;16.70;99.90;;;;;;4990202;28;20451;-82
2022/07/22 03:24:01;;;;;;;7.40;3.37;;;16.70;99.90;;;;;;4990456;28;20868;-81
2022/07/22 03:26:32;;;;;;;5.20;3.33;;;16.70;99.90;;;;;;4990377;28;20412;-81
2022/07/22 03:29:00;;;;;;;8.70;2.90;;;16.70;99.90;;;;;;4990860;28;20451;-82
2022/07/22 03:31:30;;;;;;;8.13;3.13;;;16.70;99.90;;;;;;4990125;28;20448;-82
2022/07/22 03:34:01;;;;;;;8.30;3.60;;;16.70;99.90;;;;;;4990058;28;21003;-82
2022/07/22 03:36:34;;;;;;;7.03;3.50;;;16.70;99.90;;;;;;4984159;28;20430;-81
2022/07/22 03:39:03;;;;;;;4.47;3.43;;;16.70;99.90;;;;;;4985669;28;20460;-81
2022/07/22 03:41:31;;;;;;;8.40;4.40;;;16.70;99.90;;;;;;4985124;28;20479;-80
2022/07/22 03:43:59;;;;;;;11.13;4.17;;;16.70;99.90;;;;;;4983315;28;20444;-80
2022/07/22 03:46:28;;;;;;;8.63;4.37;;;16.70;99.90;;;;;;4986067;28;20420;-80
2022/07/22 03:48:56;;;;;;;4.97;3.73;;;16.70;99.90;;;;;;4982535;28;20507;-80
2022/07/22 03:51:27;;;;;;;8.30;4.20;;;16.70;99.90;;;;;;4982718;28;20944;-80
2022/07/22 03:54:02;;;;;;;8.30;4.20;;;16.60;99.90;;;;;;4982326;28;20440;-80
2022/07/22 03:56:30;;;;;;;8.60;4.90;;;16.60;99.90;;;;;;4982229;28;20555;-80
2022/07/22 03:58:58;;;;;;;6.47;3.90;;;16.60;99.90;;;;;;4981786;28;20465;-80
2022/07/22 04:01:27;;;;;;;6.13;3.40;;;16.60;99.90;;;;;;4982264;28;20427;-80
2022/07/22 04:03:56;;;;;;;4.70;3.87;;;16.60;99.90;;;;;;4982008;28;20547;-80
2022/07/22 04:06:37;;;;;;;7.10;4.50;;;16.60;99.90;;;;;;4982387;28;20415;-80
2022/07/22 04:09:11;;;;;;;7.37;3.50;;;16.60;99.90;;;;;;4987111;28;20455;-79
2022/07/22 04:11:40;;;;;;;4.90;3.30;;;16.60;99.90;;;;;;4986776;28;20490;-79
2022/07/22 04:14:10;;;;;;;5.50;3.47;;;16.60;99.90;;;;;;4984270;28;20605;-80
2022/07/22 04:16:38;;;;;;;6.03;4.07;;;16.60;99.90;;;;;;4983143;28;20431;-79
2022/07/22 04:19:10;;;;;;;5.73;4.80;;;16.60;99.90;;;;;;4982693;28;20469;-80
2022/07/22 04:21:50;;;;;;;5.87;4.07;;;16.60;99.90;;;;;;4982396;28;20464;-80
2022/07/22 04:24:20;;;;;;;5.50;3.50;;;16.60;99.90;;;;;;4999427;28;20457;-80
2022/07/22 04:26:49;;;;;;;6.30;3.67;;;16.70;99.90;;;;;;4982802;28;20435;-80
2022/07/22 04:29:18;;;;;;;6.20;4.63;;;16.70;99.90;;;;;;4999441;28;20444;-80
2022/07/22 04:31:46;;;;;;;7.57;5.13;;;16.70;99.90;;;;;;4981943;28;20477;-80
2022/07/22 04:34:18;;;;;;;6.13;3.53;;;16.70;99.90;;;;;;4982313;28;20430;-80
2022/07/22 04:36:49;;;;;;;7.00;3.93;;;16.70;99.90;;;;;;4982580;28;20456;-80
2022/07/22 04:39:18;;;;;;;6.03;4.03;;;16.70;99.90;;;;;;4981155;28;20461;-80
2022/07/22 04:41:54;;;;;;;7.90;3.77;;;16.70;99.90;;;;;;4981219;28;20468;-80
2022/07/22 04:44:23;;;;;;;8.40;4.57;;;16.70;99.90;;;;;;4980848;28;20563;-80
2022/07/22 04:46:52;;;;;;;11.90;4.63;;;16.70;99.90;;;;;;4981449;28;20832;-80
2022/07/22 04:49:20;;;;;;;6.50;4.33;;;16.70;99.90;;;;;;4996787;28;20455;-80
2022/07/22 04:51:50;;;;;;;6.03;4.33;;;16.70;99.90;;;;;;4980736;28;20497;-80
2022/07/22 04:54:28;;;;;;;7.03;4.10;;;16.70;99.90;;;;;;4981467;28;20441;-80
2022/07/22 04:56:58;;;;;;;10.57;4.07;;;16.70;99.90;;;;;;4980169;28;20419;-80
2022/07/22 04:59:27;;;;;;;6.47;4.20;;;16.70;99.90;;;;;;4979890;28;20470;-80
2022/07/22 05:01:55;;;;;;;8.33;4.17;;;16.70;99.90;;;;;;4980324;28;20530;-80
2022/07/22 05:04:24;;;;;;;9.87;3.77;;;16.70;99.90;;;;;;4979772;28;20460;-83
2022/07/22 05:06:54;;;;;;;4.60;4.00;;;16.70;99.90;;;;;;4979594;28;20848;-81
2022/07/22 05:09:23;;;;;;;6.73;4.13;;;16.80;99.90;;;;;;4979421;28;20426;-81
2022/07/22 05:11:52;;;;;;;7.47;4.37;;;16.80;99.90;;;;;;4979353;28;20443;-81
2022/07/22 05:14:23;;;;;;;7.30;4.10;;;16.80;99.90;;;;;;4979361;28;20853;-81
2022/07/22 05:16:51;;;;;;;8.03;4.13;;;16.80;99.90;;;;;;4979777;28;20502;-81
2022/07/22 05:19:20;;;;;;;6.27;4.03;;;16.80;99.90;;;;;;4979631;28;20468;-81
2022/07/22 05:21:48;;;;;;;8.47;4.13;;;16.70;99.90;;;;;;4979478;28;20447;-81
2022/07/22 05:24:18;;;;;;;7.80;3.70;;;16.80;99.90;;;;;;4978879;28;20447;-81
2022/07/22 05:26:46;;;;;;;7.23;3.77;;;16.80;99.90;;;;;;4979019;28;20511;-81
2022/07/22 05:29:15;;;;;;;9.37;4.13;;;16.80;99.90;;;;;;4978844;28;20448;-81
2022/07/22 05:31:43;;;;;;;13.27;4.83;;;16.90;99.90;;;;;;4978797;28;20468;-81
2022/07/22 05:34:11;;;;;;;8.77;4.20;;;16.90;99.90;;;;;;4979215;28;20507;-81
2022/07/22 05:36:45;;;;;;;7.60;3.87;;;16.90;99.90;;;;;;4978531;28;20460;-80
2022/07/22 05:39:14;;;;;;;7.97;3.80;;;16.90;99.90;;;;;;4978098;28;21072;-80
2022/07/22 05:41:44;;;;;;;8.23;3.93;;;16.90;99.90;;;;;;4977695;28;20472;-80
2022/07/22 05:44:12;;;;;;;6.00;3.97;;;16.90;99.90;;;;;;4977743;28;20459;-80
2022/07/22 05:46:41;;;;;;;8.80;4.07;;;17.00;99.90;;;;;;4978485;28;20792;-80
2022/07/22 05:49:10;;;;;;;6.40;4.40;;;17.00;99.90;;;;;;4978142;28;20468;-80
2022/07/22 05:51:51;;;;;;;7.07;4.07;;;17.00;99.90;;;;;;4977788;28;20483;-80
2022/07/22 05:54:21;;;;;;;8.67;4.80;;;17.10;99.90;;;;;;4977951;28;21034;-80
2022/07/22 05:56:53;;;;;;;8.90;4.33;;;17.10;99.90;;;;;;4977731;28;20922;-80
2022/07/22 05:59:21;;;;;;;8.73;4.13;;;17.10;99.90;;;;;;4978006;28;20473;-80
2022/07/22 06:01:50;;;;;;;9.23;4.67;;;17.20;99.90;;;;;;4978131;28;21075;-80
2022/07/22 06:04:37;;;;;;;8.43;4.77;;;17.20;99.90;;;;;;4995857;28;20406;-80
2022/07/22 06:07:06;;;;;;;5.60;3.60;;;17.20;99.90;;;;;;4978246;28;20453;-81
2022/07/22 06:09:35;;;;;;;6.50;4.50;;;17.20;99.90;;;;;;4978019;28;20854;-81
2022/07/22 06:12:05;;;;;;;13.23;5.33;;;17.20;99.90;;;;;;4977772;28;20483;-81
2022/07/22 06:14:36;;;;;;;11.80;4.50;;;17.30;99.90;;;;;;4977752;28;20495;-81
2022/07/22 06:17:04;;;;;;;9.53;5.93;;;17.30;99.90;;;;;;4978084;28;20954;-81
2022/07/22 06:19:34;;;;;;;13.30;3.97;;;17.30;99.90;;;;;;4978011;28;20539;-81
2022/07/22 06:22:02;;;;;;;9.30;4.07;;;17.30;99.90;;;;;;4977874;28;21012;-81
2022/07/22 06:24:31;;;;;;;7.40;4.90;;;17.30;99.90;;;;;;4977717;28;20434;-80
2022/07/22 06:26:59;;;;;;;7.33;4.00;;;17.40;99.90;;;;;;4977335;28;20495;-80
2022/07/22 06:29:28;;;;;;;8.27;4.07;;;17.40;99.90;;;;;;4977492;28;20455;-81
2022/07/22 06:31:57;;;;;;;10.03;4.40;;;17.40;99.90;;;;;;4977217;28;20469;-81
2022/07/22 06:34:27;;;;;;;9.30;4.67;;;17.40;99.90;;;;;;4995075;28;20572;-82
2022/07/22 06:37:04;;;;;;;7.60;3.83;;;17.50;99.90;;;;;;4978951;28;20460;-81
2022/07/22 06:39:34;;;;;;;6.93;3.83;;;17.50;99.90;;;;;;4981772;28;20476;-81
2022/07/22 06:42:02;;;;;;;7.30;4.37;;;17.50;99.90;;;;;;4998748;28;20434;-81
2022/07/22 06:44:47;;;;;;;10.47;4.40;;;17.60;99.90;;;;;;4998398;28;20495;-81
2022/07/22 06:47:25;;;;;;;6.47;4.10;;;17.60;99.90;;;;;;4981212;28;20440;-81
2022/07/22 06:49:54;;;;;;;7.17;4.27;;;17.60;99.90;;;;;;4981161;28;20499;-81
2022/07/22 06:52:22;;;;;;;5.53;3.63;;;17.60;99.90;;;;;;4980835;28;20476;-81
2022/07/22 06:54:50;;;;;;;6.97;3.60;;;17.60;99.90;;;;;;4981380;28;20518;-81
2022/07/22 06:57:25;;;;;;;7.23;4.03;;;17.60;99.90;;;;;;4981488;28;20522;-80
2022/07/22 06:59:55;;;;;;;5.77;4.20;;;17.60;99.90;;;;;;4981232;28;20477;-80
2022/07/22 07:02:25;;;;;;;12.00;4.40;;;17.60;99.90;;;;;;4981860;28;20467;-81
2022/07/22 07:04:53;;;;;;;9.43;4.10;;;17.70;99.90;;;;;;4980843;28;20950;-81
2022/07/22 07:07:22;;;;;;;6.87;4.30;;;17.70;99.90;;;;;;4981559;28;20444;-81
2022/07/22 07:09:56;;;;;;;6.40;4.33;;;17.70;99.90;;;;;;4981971;28;20422;-81
2022/07/22 07:12:51;;;;;;;7.10;4.20;;;17.70;99.90;;;;;;4995304;28;20857;-81
2022/07/22 07:15:24;;;;;;;6.93;4.17;;;17.80;99.90;;;;;;4981041;28;20520;-81
2022/07/22 07:18:02;;;;;;;9.00;4.63;;;17.70;99.90;;;;;;4981940;28;20433;-81
2022/07/22 07:20:31;;;;;;;6.07;3.67;;;17.70;99.90;;;;;;4980645;28;20483;-81
2022/07/22 07:23:02;;;;;;;8.97;4.63;;;17.70;99.90;;;;;;4980860;28;20555;-80
2022/07/22 07:25:34;;;;;;;10.83;4.67;;;17.70;99.90;;;;;;4980513;28;20822;-80
2022/07/22 07:28:03;;;;;;;8.60;4.03;;;17.70;99.90;;;;;;4998131;28;20403;-80
2022/07/22 07:31:03;;;;;;;8.60;3.60;;;17.70;99.90;;;;;;4983188;28;20877;-80
2022/07/22 07:33:33;;;;;;;6.77;3.47;;;17.70;99.90;;;;;;4981655;28;20461;-81
2022/07/22 07:36:01;;;;;;;8.30;3.43;;;17.70;99.90;;;;;;4981390;28;20487;-81
2022/07/22 07:38:38;;;;;;;10.13;3.70;;;17.80;99.90;;;;;;4981650;28;20448;-81
2022/07/22 07:41:11;;;;;;;7.67;3.70;;;17.80;99.90;;;;;;4980603;28;20528;-81
2022/07/22 07:43:41;;;;;;;6.70;3.40;;;17.80;99.90;;;;;;4979968;28;20449;-81
2022/07/22 07:46:11;;;;;;;13.20;3.90;;;17.90;99.90;;;;;;4980282;28;20441;-81
2022/07/22 07:48:40;;;;;;;6.20;3.50;;;17.90;99.90;;;;;;4979089;28;20461;-81
2022/07/22 07:51:08;;;;;;;5.10;3.10;;;18.00;99.90;;;;;;4980553;28;20449;-80
2022/07/22 07:53:37;;;;;;;5.03;2.93;;;18.10;99.90;;;;;;4996394;28;20448;-80
2022/07/22 07:56:06;;;;;;;6.30;3.47;;;18.10;99.90;;;;;;4980332;28;20444;-80
2022/07/22 07:58:35;;;;;;;6.10;3.10;;;18.20;99.90;;;;;;4980391;28;20476;-81
2022/07/22 08:01:07;;;;;;;8.30;2.90;;;18.30;99.90;;;;;;4980127;28;21017;-80
2022/07/22 08:03:38;;;;;;;6.60;2.60;;;18.30;99.90;;;;;;4981001;28;20448;-80
2022/07/22 08:06:07;;;;;;;9.50;4.70;;;18.30;99.90;;;;;;4980751;28;20942;-81
2022/07/22 08:08:36;;;;;;;7.07;3.00;;;18.40;99.90;;;;;;4980113;28;20441;-80
2022/07/22 08:11:11;;;;;;;5.00;3.00;;;18.40;99.90;;;;;;4979743;28;20440;-80
2022/07/22 08:14:09;;;;;;;6.97;3.90;;;18.40;99.90;;;;;;4979833;28;20531;-81
2022/07/22 08:16:55;;;;;;;4.77;3.03;;;18.40;99.90;;;;;;4997783;28;20424;-80
2022/07/22 08:19:25;;;;;;;6.77;3.87;;;18.40;99.90;;;;;;4980051;28;20511;-80
2022/07/22 08:21:55;;;;;;;6.57;3.67;;;18.40;99.90;;;;;;4980508;28;20495;-80
2022/07/22 08:24:31;;;;;;;6.03;2.80;;;18.40;99.90;;;;;;4980644;28;20945;-80
2022/07/22 08:27:07;;;;;;;4.17;3.00;;;18.50;99.90;;;;;;4979999;28;20527;-81
2022/07/22 08:29:35;;;;;;;5.47;2.90;;;18.40;99.90;;;;;;4979965;28;20453;-80
2022/07/22 08:32:04;;;;;;;4.17;2.50;;;18.50;99.90;;;;;;4979972;28;20465;-80
2022/07/22 08:34:34;;;;;;;7.10;3.77;;;18.50;99.90;;;;;;4979572;28;20467;-80
2022/07/22 08:37:02;;;;;;;6.83;3.23;;;18.50;99.90;;;;;;4979724;28;20556;-79
2022/07/22 08:39:30;;;;;;;6.07;3.03;;;18.50;99.90;;;;;;4979888;28;20473;-80
2022/07/22 08:41:58;;;;;;;5.23;3.07;;;18.60;99.90;;;;;;4978847;28;20468;-80
2022/07/22 08:44:30;;;;;;;6.17;3.30;;;18.50;99.90;;;;;;4979723;28;20555;-81
2022/07/22 08:46:59;;;;;;;6.23;4.07;;;18.60;99.90;;;;;;4979454;28;20448;-80
2022/07/22 08:50:06;;;;;;;8.47;3.60;;;18.60;99.90;;;;;;4983878;28;20433;-80
2022/07/22 08:52:52;;;;;;;6.67;3.50;;;18.60;99.90;;;;;;4995479;28;20476;-81
2022/07/22 08:55:20;;;;;;;6.27;2.77;;;18.70;99.90;;;;;;4979884;28;20453;-80
2022/07/22 08:57:50;;;;;;;7.63;3.13;;;18.80;99.90;;;;;;4980132;28;20451;-81
2022/07/22 09:00:20;;;;;;;6.03;3.07;;;18.80;99.90;;;;;;4979674;28;20998;-80
2022/07/22 09:02:49;;;;;;;4.87;2.90;;;18.80;99.90;;;;;;4979942;28;20472;-81
2022/07/22 09:05:19;;;;;;;6.93;3.23;;;19.00;99.90;;;;;;4979993;28;20456;-80
2022/07/22 09:08:09;;;;;;;5.93;3.10;;;19.00;99.90;;;;;;4979214;28;20856;-80
2022/07/22 09:10:53;;;;;;;4.13;3.03;;;19.00;99.90;;;;;;4979533;28;20942;-80
2022/07/22 09:14:01;;;;;;;4.60;2.80;;;19.10;99.90;;;;;;4996511;28;20499;-80
2022/07/22 09:16:46;;;;;;;3.60;2.70;;;19.10;99.90;;;;;;4979266;28;20449;-80
2022/07/22 09:19:53;;;;;;;4.00;2.70;;;19.10;99.90;;;;;;4937191;29;20475;-80
2022/07/22 09:22:37;;;;;;;5.50;3.07;;;19.10;99.90;;;;;;4936722;29;20543;-80
2022/07/22 09:25:29;;;;;;;5.63;2.80;;;19.10;99.90;;;;;;4963564;28;20453;-80
2022/07/22 09:28:19;;;;;;;8.73;3.00;;;19.00;99.90;;;;;;4998151;28;20444;-80
2022/07/22 09:31:23;;;;;;;3.83;2.67;;;19.00;99.90;;;;;;4998410;28;20432;-80
2022/07/22 09:34:01;;;;;;;5.97;3.13;;;19.00;99.90;;;;;;4990963;28;20457;-80
2022/07/22 09:36:31;;;;;;;4.33;3.60;;;19.00;99.90;;;;;;4998652;28;20452;-80
2022/07/22 09:39:01;;;;;;;5.10;3.10;;;19.00;99.90;;;;;;4985752;28;20491;-80
2022/07/22 09:41:29;;;;;;;8.00;3.73;;;19.10;99.90;;;;;;4978720;28;20523;-79
2022/07/22 09:43:58;;;;;;;4.60;3.13;;;19.10;99.90;;;;;;4979243;28;20484;-80
2022/07/22 09:46:38;;;;;;;6.57;3.10;;;19.10;99.90;;;;;;4979502;28;20445;-80
2022/07/22 09:49:32;;;;;;;5.47;2.93;;;19.20;99.90;;;;;;4996988;28;20436;-80
2022/07/22 09:52:21;;;;;;;7.43;3.00;;;19.20;99.90;;;;;;4996120;28;20472;-80
2022/07/22 09:55:16;;;;;;;6.30;3.10;;;19.20;99.90;;;;;;5014488;28;20448;-80
2022/07/22 09:57:47;;;;;;;5.33;3.33;;;19.30;99.90;;;;;;4995750;28;20468;-80
2022/07/22 10:00:17;;;;;;;7.63;3.40;;;19.30;99.90;;;;;;4996628;28;20468;-80
2022/07/22 10:02:55;;;;;;;5.43;2.93;;;19.30;99.90;;;;;;4996284;28;20981;-80
2022/07/22 10:05:25;;;;;;;6.30;3.50;;;19.30;99.90;;;;;;4996945;28;20441;-80
2022/07/22 10:07:56;;;;;;;5.40;3.20;;;19.40;99.90;;;;;;4995383;28;20452;-80
2022/07/22 10:10:28;;;;;;;9.17;3.70;;;19.40;99.90;;;;;;4996616;28;20520;-81
2022/07/22 10:12:59;;;;;;;5.40;2.67;;;19.50;99.90;;;;;;4997337;28;20464;-80
2022/07/22 10:15:29;;;;;;;5.20;2.83;;;19.50;99.90;;;;;;4998550;28;20547;-80
2022/07/22 10:18:06;;;;;;;4.70;2.83;;;19.50;99.90;;;;;;4998668;28;20463;-79
2022/07/22 10:20:37;;;;;;;4.13;2.40;;;19.50;99.90;;;;;;4998304;28;20460;-80
2022/07/22 10:23:07;;;;;;;6.40;3.33;;;19.50;99.90;;;;;;4997148;28;20475;-79
2022/07/22 10:25:58;;;;;;;3.27;2.77;;;19.50;99.90;;;;;;4982119;28;20444;-80
2022/07/22 10:28:30;;;;;;;3.77;2.20;;;19.50;99.90;;;;;;4997525;28;20433;-80
2022/07/22 10:31:18;;;;;;;5.47;2.60;;;19.50;99.90;;;;;;4991613;28;20449;-79
2022/07/22 10:33:50;;;;;;;4.90;3.00;;;19.50;99.90;;;;;;5008969;28;20429;-79
2022/07/22 10:36:32;;;;;;;6.07;2.60;;;19.50;99.90;;;;;;4992367;28;20452;-79
2022/07/22 10:39:07;;;;;;;4.00;2.90;;;19.50;99.90;;;;;;4992792;28;20946;-79
2022/07/22 10:41:38;;;;;;;5.20;3.10;;;19.50;99.90;;;;;;5011422;28;20496;-79
2022/07/22 10:44:07;;;;;;;5.03;2.50;;;19.50;99.90;;;;;;5009955;28;20417;-79
2022/07/22 10:46:54;;;;;;;4.83;2.80;;;19.50;99.90;;;;;;4992257;28;20466;-81
2022/07/22 10:49:25;;;;;;;3.83;2.90;;;19.50;99.90;;;;;;5011250;28;20477;-79
2022/07/22 10:52:16;;;;;;;4.03;2.80;;;19.50;99.90;;;;;;4995562;28;20555;-79
2022/07/22 10:55:20;;;;;;;6.37;3.20;;;19.50;99.90;;;;;;5013697;28;20421;-79
2022/07/22 10:57:49;;;;;;;6.37;3.30;;;19.50;99.90;;;;;;4997510;28;20441;-80
2022/07/22 11:00:18;;;;;;;3.83;2.80;;;19.50;99.90;;;;;;5013366;28;20839;-80
2022/07/22 11:02:46;;;;;;;3.93;2.70;;;19.50;99.90;;;;;;4996657;28;20500;-80
2022/07/22 11:05:15;;;;;;;4.80;3.13;;;19.60;99.90;;;;;;5013094;28;20440;-80
2022/07/22 11:07:44;;;;;;;3.53;2.47;;;19.60;99.90;;;;;;4998068;28;20480;-80
2022/07/22 11:10:14;;;;;;;4.73;3.13;;;19.70;99.90;;;;;;4997136;28;20448;-80
2022/07/22 11:12:50;;;;;;;4.87;2.90;;;19.80;99.90;;;;;;4995314;28;20543;-79
2022/07/22 11:15:19;;;;;;;4.73;3.60;;;19.90;99.90;;;;;;5014004;28;20417;-80
2022/07/22 11:17:47;;;;;;;9.33;3.03;;;19.90;99.90;;;;;;4996832;28;20459;-80
2022/07/22 11:20:15;;;;;;;5.13;2.77;;;20.00;99.90;;;;;;4996889;28;20457;-80
2022/07/22 11:22:48;;;;;;;5.10;3.07;;;20.00;99.90;;;;;;5013775;28;20484;-80
2022/07/22 11:25:17;;;;;;;3.90;2.83;;;20.00;99.90;;;;;;4997838;28;20930;-80
2022/07/22 11:27:52;;;;;;;4.27;2.80;;;20.00;99.90;;;;;;5008900;28;20441;-79
2022/07/22 11:30:20;;;;;;;5.23;3.07;;;20.10;99.90;;;;;;4998012;28;20420;-79
2022/07/22 11:32:49;;;;;;;4.30;2.70;;;20.00;99.90;;;;;;4979886;28;20532;-79
2022/07/22 11:35:17;;;;;;;4.83;2.67;;;20.00;99.90;;;;;;4997700;28;20953;-79
2022/07/22 11:37:56;;;;;;;7.43;3.50;;;20.00;99.90;;;;;;4997761;28;20478;-79
2022/07/22 11:40:24;;;;;;;4.43;2.67;;;20.00;99.90;;;;;;4997565;28;20441;-79
2022/07/22 11:43:05;;;;;;;8.50;3.67;;;20.00;99.90;;;;;;4979897;28;20519;-79
2022/07/22 11:45:33;;;;;;;6.00;2.73;;;20.00;99.90;;;;;;4979511;28;20575;-79
2022/07/22 11:48:09;;;;;;;6.07;3.03;;;20.00;99.90;;;;;;4997407;28;20437;-79
2022/07/22 11:50:38;;;;;;;8.20;3.47;;;20.00;99.90;;;;;;4980539;28;20448;-79
2022/07/22 11:53:06;;;;;;;4.60;2.63;;;20.00;99.90;;;;;;4979738;28;20492;-79
2022/07/22 11:55:35;;;;;;;8.70;3.60;;;20.00;99.90;;;;;;4998505;28;20464;-79
2022/07/22 11:58:05;;;;;;;3.83;2.80;;;20.10;99.90;;;;;;4997782;28;20437;-79
2022/07/22 12:00:33;;;;;;;4.67;2.73;;;20.10;99.90;;;;;;4979808;28;20460;-79
2022/07/22 12:03:01;;;;;;;4.53;2.53;;;20.10;99.90;;;;;;4979821;28;20862;-79
2022/07/22 12:05:32;;;;;;;5.20;2.90;;;20.20;99.90;;;;;;4998233;28;20445;-79
2022/07/22 12:08:02;;;;;;;5.17;3.10;;;20.30;99.90;;;;;;4981076;28;20488;-79
2022/07/22 12:10:30;;;;;;;5.93;2.57;;;20.50;99.90;;;;;;4979886;28;20507;-79
2022/07/22 12:12:58;;;;;;;6.27;2.60;;;20.60;99.90;;;;;;4979588;28;20467;-79
2022/07/22 12:15:28;;;;;;;4.10;2.57;;;20.60;99.90;;;;;;4980281;28;20507;-79
2022/07/22 12:18:22;;;;;;;4.87;2.83;;;20.70;99.90;;;;;;4998203;28;20425;-79
2022/07/22 12:20:51;;;;;;;4.83;3.17;;;20.80;99.90;;;;;;4996931;28;20491;-79
2022/07/22 12:23:23;;;;;;;5.00;2.87;;;20.90;99.90;;;;;;4997401;28;21022;-80
2022/07/22 12:25:56;;;;;;;3.73;2.97;;;21.00;99.90;;;;;;5000445;28;20476;-80
2022/07/22 12:28:25;;;;;;;3.20;2.60;;;21.10;99.90;;;;;;4999252;28;20790;-80
2022/07/22 12:30:56;;;;;;;4.30;3.10;;;21.10;99.90;;;;;;5000197;28;20441;-79
2022/07/22 12:33:25;;;;;;;4.67;3.07;;;21.00;99.90;;;;;;4982297;28;20477;-80
2022/07/22 12:36:01;;;;;;;10.93;3.73;;;21.00;99.90;;;;;;4981113;28;20862;-80
2022/07/22 12:38:29;;;;;;;6.23;3.10;;;21.00;99.90;;;;;;4981452;28;20477;-80
2022/07/22 12:41:28;;;;;;;5.67;3.40;;;20.90;99.90;;;;;;4981438;28;20449;-80
2022/07/22 12:43:57;;;;;;;5.10;3.13;;;20.90;99.90;;;;;;4984753;28;20448;-80
2022/07/22 12:46:27;;;;;;;4.97;3.23;;;20.90;99.90;;;;;;4984993;28;20499;-80
2022/07/22 12:48:59;;;;;;;4.50;2.50;;;20.90;99.90;;;;;;4984272;28;20457;-80
2022/07/22 12:51:29;;;;;;;4.50;2.63;;;20.90;99.90;;;;;;4983607;28;20488;-81
2022/07/22 12:53:58;;;;;;;5.37;2.50;;;20.90;99.90;;;;;;5002078;28;20447;-81
2022/07/22 12:56:27;;;;;;;6.70;2.80;;;20.90;99.90;;;;;;4983137;28;20449;-80
2022/07/22 12:59:02;;;;;;;6.17;3.03;;;20.90;99.90;;;;;;4983110;28;20451;-80
2022/07/22 13:01:31;;;;;;;3.83;2.77;;;20.90;99.90;;;;;;5000975;28;20444;-80
2022/07/22 13:04:00;;;;;;;4.60;3.27;;;20.90;99.90;;;;;;4982024;28;20476;-80
2022/07/22 13:06:28;;;;;;;4.70;2.80;;;20.80;99.90;;;;;;4985176;28;20461;-80
2022/07/22 13:08:57;;;;;;;5.33;2.47;;;20.80;99.90;;;;;;4983218;28;20559;-80
2022/07/22 13:11:25;;;;;;;5.80;2.53;;;20.80;99.90;;;;;;4982548;28;20461;-80